sensor_id;sensor_type;location;lat;lon;timestamp;pressure;altitude;pressure_sealevel;temperature;humidity
36304;BME280;22335;49.800;8.596;2024-02-23T00:05:22;98278.19;;;12.09;63.63
36304;BME280;22335;49.800;8.596;2024-02-23T00:12:06;98303.06;;;12.04;63.50
36304;BME280;22335;49.800;8.596;2024-02-23T00:18:52;98314.53;;;11.94;63.37
36304;BME280;22335;49.800;8.596;2024-02-23T00:25:35;98339.19;;;11.94;63.39
36304;BME280;22335;49.800;8.596;2024-02-23T00:32:19;98283.75;;;11.48;63.67
36304;BME280;22335;49.800;8.596;2024-02-23T00:39:03;98349.56;;;11.88;63.40
36304;BME280;22335;49.800;8.596;2024-02-23T00:45:48;98354.03;;;11.81;63.54
36304;BME280;22335;49.800;8.596;2024-02-23T00:52:32;98354.47;;;11.70;63.36
36304;BME280;22335;49.800;8.596;2024-02-23T00:59:17;98371.25;;;11.57;63.04
36304;BME280;22335;49.800;8.596;2024-02-23T01:06:00;98375.72;;;11.49;62.78
36304;BME280;22335;49.800;8.596;2024-02-23T01:12:44;98376.63;;;11.41;62.91
36304;BME280;22335;49.800;8.596;2024-02-23T01:19:29;98389.25;;;11.33;62.87
36304;BME280;22335;49.800;8.596;2024-02-23T01:26:12;98417.44;;;11.34;62.75
36304;BME280;22335;49.800;8.596;2024-02-23T01:32:56;98429.06;;;11.30;62.47
36304;BME280;22335;49.800;8.596;2024-02-23T01:39:40;98432.47;;;11.27;62.42
36304;BME280;22335;49.800;8.596;2024-02-23T01:46:24;98443.16;;;11.20;62.58
36304;BME280;22335;49.800;8.596;2024-02-23T01:53:09;98444.97;;;11.16;62.57
36304;BME280;22335;49.800;8.596;2024-02-23T01:59:56;98453.88;;;11.13;62.38
36304;BME280;22335;49.800;8.596;2024-02-23T02:06:43;98479.47;;;11.08;61.97
36304;BME280;22335;49.800;8.596;2024-02-23T02:13:29;98500.81;;;11.03;61.72
36304;BME280;22335;49.800;8.596;2024-02-23T02:20:14;98521.47;;;10.92;61.19
36304;BME280;22335;49.800;8.596;2024-02-23T02:26:57;98521.69;;;10.87;61.22
36304;BME280;22335;49.800;8.596;2024-02-23T02:33:41;98534.22;;;10.88;61.10
36304;BME280;22335;49.800;8.596;2024-02-23T02:40:26;98523.28;;;10.67;61.39
36304;BME280;22335;49.800;8.596;2024-02-23T02:47:09;98537.19;;;10.53;61.65
36304;BME280;22335;49.800;8.596;2024-02-23T02:53:53;98551.31;;;10.25;61.51
36304;BME280;22335;49.800;8.596;2024-02-23T03:00:37;98568.94;;;10.07;61.61
36304;BME280;22335;49.800;8.596;2024-02-23T03:07:21;98561.78;;;9.85;61.95
36304;BME280;22335;49.800;8.596;2024-02-23T03:14:05;98470.59;;;9.04;62.12
36304;BME280;22335;49.800;8.596;2024-02-23T03:20:49;98567.91;;;9.73;62.15
36304;BME280;22335;49.800;8.596;2024-02-23T03:27:33;98581.44;;;9.61;62.08
36304;BME280;22335;49.800;8.596;2024-02-23T03:34:19;98593.59;;;9.72;62.09
36304;BME280;22335;49.800;8.596;2024-02-23T03:41:04;98581.69;;;9.85;61.96
36304;BME280;22335;49.800;8.596;2024-02-23T04:02:51;98556.41;;;9.97;61.66
36304;BME280;22335;49.800;8.596;2024-02-23T04:09:36;98554.03;;;9.87;61.91
36304;BME280;22335;49.800;8.596;2024-02-23T04:16:22;98564.19;;;9.78;61.72
36304;BME280;22335;49.800;8.596;2024-02-23T04:23:07;98520.63;;;9.43;61.61
36304;BME280;22335;49.800;8.596;2024-02-23T04:29:51;98564.53;;;9.76;62.03
36304;BME280;22335;49.800;8.596;2024-02-23T04:36:34;98585.41;;;9.72;61.93
36304;BME280;22335;49.800;8.596;2024-02-23T04:43:19;98583.50;;;9.73;61.88
36304;BME280;22335;49.800;8.596;2024-02-23T04:50:03;98587.97;;;9.77;61.43
36304;BME280;22335;49.800;8.596;2024-02-23T04:56:47;98586.38;;;9.67;61.85
36304;BME280;22335;49.800;8.596;2024-02-23T05:03:33;98593.16;;;9.53;61.97
36304;BME280;22335;49.800;8.596;2024-02-23T05:10:17;98588.34;;;9.50;61.70
36304;BME280;22335;49.800;8.596;2024-02-23T05:17:00;98589.16;;;9.41;61.90
36304;BME280;22335;49.800;8.596;2024-02-23T05:23:46;98585.63;;;9.32;62.44
36304;BME280;22335;49.800;8.596;2024-02-23T05:30:29;98575.38;;;9.29;62.45
36304;BME280;22335;49.800;8.596;2024-02-23T05:37:13;98572.16;;;9.27;62.77
36304;BME280;22335;49.800;8.596;2024-02-23T05:43:58;98578.56;;;9.31;62.05
36304;BME280;22335;49.800;8.596;2024-02-23T05:50:41;98572.94;;;9.28;62.49
36304;BME280;22335;49.800;8.596;2024-02-23T05:57:25;98576.03;;;9.26;61.86
36304;BME280;22335;49.800;8.596;2024-02-23T06:04:10;98582.91;;;9.23;61.77
36304;BME280;22335;49.800;8.596;2024-02-23T06:10:54;98585.63;;;9.32;61.79
36304;BME280;22335;49.800;8.596;2024-02-23T06:17:37;98611.63;;;9.38;61.24
36304;BME280;22335;49.800;8.596;2024-02-23T06:24:23;98573.28;;;9.09;61.79
36304;BME280;22335;49.800;8.596;2024-02-23T06:31:06;98621.25;;;9.36;61.46
36304;BME280;22335;49.800;8.596;2024-02-23T06:37:50;98622.72;;;9.42;61.44
36304;BME280;22335;49.800;8.596;2024-02-23T06:44:35;98632.78;;;9.50;61.42
36304;BME280;22335;49.800;8.596;2024-02-23T06:51:18;98642.13;;;9.58;60.92
36304;BME280;22335;49.800;8.596;2024-02-23T06:58:04;98639.53;;;9.61;61.29
36304;BME280;22335;49.800;8.596;2024-02-23T07:04:50;98635.03;;;9.74;60.84
36304;BME280;22335;49.800;8.596;2024-02-23T07:11:36;98629.69;;;9.86;60.67
36304;BME280;22335;49.800;8.596;2024-02-23T07:18:20;98638.69;;;9.96;60.64
36304;BME280;22335;49.800;8.596;2024-02-23T07:25:05;98633.22;;;9.96;60.19
36304;BME280;22335;49.800;8.596;2024-02-23T07:31:49;98629.34;;;9.97;60.47
36304;BME280;22335;49.800;8.596;2024-02-23T07:38:32;98632.41;;;9.95;60.44
36304;BME280;22335;49.800;8.596;2024-02-23T07:45:17;98631.28;;;9.87;60.19
36304;BME280;22335;49.800;8.596;2024-02-23T07:52:01;98651.53;;;9.86;60.61
36304;BME280;22335;49.800;8.596;2024-02-23T07:58:45;98650.75;;;9.95;60.67
36304;BME280;22335;49.800;8.596;2024-02-23T08:05:30;98658.88;;;10.12;60.47
36304;BME280;22335;49.800;8.596;2024-02-23T08:12:14;98660.13;;;10.32;60.23
36304;BME280;22335;49.800;8.596;2024-02-23T08:18:57;98666.22;;;10.37;59.85
36304;BME280;22335;49.800;8.596;2024-02-23T08:25:42;98676.84;;;10.30;60.05
36304;BME280;22335;49.800;8.596;2024-02-23T08:32:26;98665.13;;;10.30;60.02
36304;BME280;22335;49.800;8.596;2024-02-23T08:39:09;98665.78;;;10.27;59.83
36304;BME280;22335;49.800;8.596;2024-02-23T08:45:54;98664.03;;;10.13;59.69
36304;BME280;22335;49.800;8.596;2024-02-23T08:52:39;98665.31;;;10.07;59.43
36304;BME280;22335;49.800;8.596;2024-02-23T08:59:23;98671.22;;;10.18;59.49
36304;BME280;22335;49.800;8.596;2024-02-23T09:06:08;98584.94;;;9.70;59.35
36304;BME280;22335;49.800;8.596;2024-02-23T09:12:52;98674.13;;;10.30;59.16
36304;BME280;22335;49.800;8.596;2024-02-23T09:19:35;98680.09;;;10.62;59.04
36304;BME280;22335;49.800;8.596;2024-02-23T09:26:20;98664.72;;;10.87;58.98
36304;BME280;22335;49.800;8.596;2024-02-23T09:33:04;98653.44;;;10.89;58.71
36304;BME280;22335;49.800;8.596;2024-02-23T09:39:48;98653.59;;;11.13;58.46
36304;BME280;22335;49.800;8.596;2024-02-23T09:46:33;98636.97;;;11.60;58.03
36304;BME280;22335;49.800;8.596;2024-02-23T09:53:19;98649.34;;;11.99;57.85
36304;BME280;22335;49.800;8.596;2024-02-23T10:00:07;98647.59;;;12.40;57.33
36304;BME280;22335;49.800;8.596;2024-02-23T10:06:54;98629.78;;;12.59;56.84
36304;BME280;22335;49.800;8.596;2024-02-23T10:13:38;98650.13;;;12.45;56.57
36304;BME280;22335;49.800;8.596;2024-02-23T10:20:22;98660.69;;;12.22;56.32
36304;BME280;22335;49.800;8.596;2024-02-23T10:27:07;98648.09;;;11.97;56.75
36304;BME280;22335;49.800;8.596;2024-02-23T10:33:51;98659.59;;;11.90;57.00
36304;BME280;22335;49.800;8.596;2024-02-23T10:40:38;98647.84;;;11.90;56.97
36304;BME280;22335;49.800;8.596;2024-02-23T10:47:24;98648.84;;;11.85;56.11
36304;BME280;22335;49.800;8.596;2024-02-23T10:54:08;98639.19;;;11.79;56.47
36304;BME280;22335;49.800;8.596;2024-02-23T11:00:58;98641.88;;;11.88;56.93
36304;BME280;22335;49.800;8.596;2024-02-23T11:07:47;98644.16;;;11.86;56.17
36304;BME280;22335;49.800;8.596;2024-02-23T11:14:32;98634.97;;;12.03;56.29
36304;BME280;22335;49.800;8.596;2024-02-23T11:21:19;98551.50;;;11.54;55.96
36304;BME280;22335;49.800;8.596;2024-02-23T11:28:05;98624.94;;;12.07;56.21
36304;BME280;22335;49.800;8.596;2024-02-23T11:34:54;98616.94;;;12.14;55.98
36304;BME280;22335;49.800;8.596;2024-02-23T11:41:39;98617.88;;;12.18;56.17
36304;BME280;22335;49.800;8.596;2024-02-23T11:48:24;98628.84;;;12.18;55.88
36304;BME280;22335;49.800;8.596;2024-02-23T11:55:09;98613.66;;;12.20;55.54
36304;BME280;22335;49.800;8.596;2024-02-23T12:01:52;98628.25;;;12.12;55.31
36304;BME280;22335;49.800;8.596;2024-02-23T12:08:37;98611.13;;;12.15;55.62
36304;BME280;22335;49.800;8.596;2024-02-23T12:15:20;98576.41;;;12.07;55.56
36304;BME280;22335;49.800;8.596;2024-02-23T12:22:04;98629.44;;;12.48;55.43
36304;BME280;22335;49.800;8.596;2024-02-23T12:28:49;98623.03;;;12.32;55.17
36304;BME280;22335;49.800;8.596;2024-02-23T12:35:33;98623.03;;;12.32;55.05
36304;BME280;22335;49.800;8.596;2024-02-23T12:42:18;98616.41;;;12.33;55.19
36304;BME280;22335;49.800;8.596;2024-02-23T12:49:03;98611.38;;;12.47;55.32
36304;BME280;22335;49.800;8.596;2024-02-23T12:55:46;98612.66;;;12.62;55.26
36304;BME280;22335;49.800;8.596;2024-02-23T13:02:30;98606.22;;;12.95;55.06
36304;BME280;22335;49.800;8.596;2024-02-23T13:09:15;98603.19;;;13.12;54.32
36304;BME280;22335;49.800;8.596;2024-02-23T13:15:58;98575.91;;;12.91;54.65
36304;BME280;22335;49.800;8.596;2024-02-23T13:22:41;98607.25;;;12.90;54.80
36304;BME280;22335;49.800;8.596;2024-02-23T13:29:26;98604.31;;;12.71;55.29
36304;BME280;22335;49.800;8.596;2024-02-23T13:36:10;98603.81;;;12.81;54.80
36304;BME280;22335;49.800;8.596;2024-02-23T13:42:54;98606.19;;;13.07;55.10
36304;BME280;22335;49.800;8.596;2024-02-23T13:49:39;98609.25;;;13.30;54.48
36304;BME280;22335;49.800;8.596;2024-02-23T13:56:22;98605.41;;;13.47;53.66
36304;BME280;22335;49.800;8.596;2024-02-23T14:03:06;98608.78;;;13.56;54.12
36304;BME280;22335;49.800;8.596;2024-02-23T14:09:52;98563.59;;;13.25;54.24
36304;BME280;22335;49.800;8.596;2024-02-23T14:16:35;98645.41;;;13.32;55.09
36304;BME280;22335;49.800;8.596;2024-02-23T14:23:19;98632.72;;;13.03;55.56
36304;BME280;22335;49.800;8.596;2024-02-23T14:30:05;98601.53;;;12.83;56.42
36304;BME280;22335;49.800;8.596;2024-02-23T14:36:50;98585.41;;;12.93;56.45
36304;BME280;22335;49.800;8.596;2024-02-23T14:43:34;98578.84;;;13.10;56.10
36304;BME280;22335;49.800;8.596;2024-02-23T14:50:19;98581.59;;;13.10;56.74
36304;BME280;22335;49.800;8.596;2024-02-23T14:57:02;98573.66;;;12.81;56.99
36304;BME280;22335;49.800;8.596;2024-02-23T15:03:46;98578.00;;;12.57;56.85
36304;BME280;22335;49.800;8.596;2024-02-23T15:10:31;98564.19;;;12.41;57.16
36304;BME280;22335;49.800;8.596;2024-02-23T15:17:14;98550.94;;;12.43;57.19
36304;BME280;22335;49.800;8.596;2024-02-23T15:23:58;98564.28;;;12.69;57.15
36304;BME280;22335;49.800;8.596;2024-02-23T15:30:43;98558.59;;;12.62;56.80
36304;BME280;22335;49.800;8.596;2024-02-23T15:37:27;98561.22;;;12.46;56.68
36304;BME280;22335;49.800;8.596;2024-02-23T15:44:10;98565.22;;;12.25;56.77
36304;BME280;22335;49.800;8.596;2024-02-23T15:50:55;98554.34;;;12.04;56.29
36304;BME280;22335;49.800;8.596;2024-02-23T15:57:39;98561.75;;;11.91;56.29
36304;BME280;22335;49.800;8.596;2024-02-23T16:04:24;98566.03;;;11.80;55.79
36304;BME280;22335;49.800;8.596;2024-02-23T16:11:13;98555.88;;;11.68;56.37
36304;BME280;22335;49.800;8.596;2024-02-23T16:17:57;98565.25;;;11.79;56.11
36304;BME280;22335;49.800;8.596;2024-02-23T16:24:41;98562.50;;;11.79;55.63
36304;BME280;22335;49.800;8.596;2024-02-23T16:31:27;98555.91;;;11.80;55.50
36304;BME280;22335;49.800;8.596;2024-02-23T16:38:11;98551.03;;;11.98;55.21
36304;BME280;22335;49.800;8.596;2024-02-23T16:44:55;98550.72;;;12.12;54.56
36304;BME280;22335;49.800;8.596;2024-02-23T16:51:40;98555.84;;;12.38;54.33
36304;BME280;22335;49.800;8.596;2024-02-23T16:58:24;98539.41;;;12.50;54.31
36304;BME280;22335;49.800;8.596;2024-02-23T17:05:11;98561.78;;;12.77;53.94
36304;BME280;22335;49.800;8.596;2024-02-23T17:11:56;98546.69;;;12.83;53.77
36304;BME280;22335;49.800;8.596;2024-02-23T17:18:39;98552.06;;;12.79;53.99
36304;BME280;22335;49.800;8.596;2024-02-23T17:25:23;98563.25;;;12.86;53.94
36304;BME280;22335;49.800;8.596;2024-02-23T17:32:08;98560.41;;;12.83;53.73
36304;BME280;22335;49.800;8.596;2024-02-23T17:38:51;98566.00;;;12.74;53.70
36304;BME280;22335;49.800;8.596;2024-02-23T17:45:35;98486.75;;;12.20;53.50
36304;BME280;22335;49.800;8.596;2024-02-23T17:52:20;98581.78;;;12.65;53.17
36304;BME280;22335;49.800;8.596;2024-02-23T17:59:05;98581.69;;;12.49;53.27
36304;BME280;22335;49.800;8.596;2024-02-23T18:05:48;98581.56;;;12.33;53.34
36304;BME280;22335;49.800;8.596;2024-02-23T18:12:33;98571.50;;;12.25;53.65
36304;BME280;22335;49.800;8.596;2024-02-23T18:19:17;98587.63;;;12.39;53.42
36304;BME280;22335;49.800;8.596;2024-02-23T18:26:01;98584.31;;;12.33;53.12
36304;BME280;22335;49.800;8.596;2024-02-23T18:32:46;98583.94;;;12.22;53.22
36304;BME280;22335;49.800;8.596;2024-02-23T18:39:30;98590.00;;;12.16;52.91
36304;BME280;22335;49.800;8.596;2024-02-23T18:46:13;98593.88;;;12.15;52.87
36304;BME280;22335;49.800;8.596;2024-02-23T18:52:58;98591.13;;;12.03;53.29
36304;BME280;22335;49.800;8.596;2024-02-23T18:59:42;98602.06;;;11.90;52.97
36304;BME280;22335;49.800;8.596;2024-02-23T19:06:25;98588.97;;;11.75;53.12
36304;BME280;22335;49.800;8.596;2024-02-23T19:13:10;98604.34;;;11.67;53.30
36304;BME280;22335;49.800;8.596;2024-02-23T19:19:54;98603.78;;;11.62;53.15
36304;BME280;22335;49.800;8.596;2024-02-23T19:26:37;98597.91;;;11.51;53.31
36304;BME280;22335;49.800;8.596;2024-02-23T19:33:22;98595.84;;;11.48;53.43
36304;BME280;22335;49.800;8.596;2024-02-23T19:40:07;98538.44;;;11.06;53.15
36304;BME280;22335;49.800;8.596;2024-02-23T19:46:52;98590.00;;;11.37;53.11
36304;BME280;22335;49.800;8.596;2024-02-23T19:53:37;98594.38;;;11.29;53.07
36304;BME280;22335;49.800;8.596;2024-02-23T20:00:23;98591.22;;;11.27;53.09
36304;BME280;22335;49.800;8.596;2024-02-23T20:07:09;98588.84;;;11.17;53.01
36304;BME280;22335;49.800;8.596;2024-02-23T20:13:56;98594.56;;;11.12;53.25
36304;BME280;22335;49.800;8.596;2024-02-23T20:20:40;98551.38;;;10.76;53.51
36304;BME280;22335;49.800;8.596;2024-02-23T20:27:23;98600.94;;;11.16;53.39
36304;BME280;22335;49.800;8.596;2024-02-23T20:34:08;98593.88;;;11.15;53.08
36304;BME280;22335;49.800;8.596;2024-02-23T20:40:52;98589.59;;;11.05;53.53
36304;BME280;22335;49.800;8.596;2024-02-23T20:47:36;98529.59;;;10.58;53.50
36304;BME280;22335;49.800;8.596;2024-02-23T20:54:21;98587.94;;;10.92;53.68
36304;BME280;22335;49.800;8.596;2024-02-23T21:01:05;98593.13;;;10.85;53.50
36304;BME280;22335;49.800;8.596;2024-02-23T21:07:49;98585.09;;;10.80;53.23
36304;BME280;22335;49.800;8.596;2024-02-23T21:14:34;98591.72;;;10.79;53.22
36304;BME280;22335;49.800;8.596;2024-02-23T21:21:18;98592.38;;;10.76;53.70
36304;BME280;22335;49.800;8.596;2024-02-23T21:28:02;98596.25;;;10.75;54.21
36304;BME280;22335;49.800;8.596;2024-02-23T21:34:47;98594.19;;;10.72;54.09
36304;BME280;22335;49.800;8.596;2024-02-23T21:41:31;98596.72;;;10.77;54.04
36304;BME280;22335;49.800;8.596;2024-02-23T21:48:14;98599.34;;;10.94;53.62
36304;BME280;22335;49.800;8.596;2024-02-23T21:54:59;98606.63;;;10.90;53.58
36304;BME280;22335;49.800;8.596;2024-02-23T22:01:43;98611.25;;;10.90;53.62
36304;BME280;22335;49.800;8.596;2024-02-23T22:08:26;98614.47;;;10.92;53.60
36304;BME280;22335;49.800;8.596;2024-02-23T22:15:11;98617.69;;;10.94;53.59
36304;BME280;22335;49.800;8.596;2024-02-23T22:21:55;98574.03;;;10.76;53.62
36304;BME280;22335;49.800;8.596;2024-02-23T22:28:38;98577.91;;;10.75;53.50
36304;BME280;22335;49.800;8.596;2024-02-23T22:35:24;98618.75;;;11.01;53.46
36304;BME280;22335;49.800;8.596;2024-02-23T22:42:08;98614.88;;;11.02;53.61
36304;BME280;22335;49.800;8.596;2024-02-23T22:48:51;98608.41;;;11.07;53.53
36304;BME280;22335;49.800;8.596;2024-02-23T22:55:36;98604.88;;;11.06;53.58
36304;BME280;22335;49.800;8.596;2024-02-23T23:02:20;98610.34;;;11.06;53.80
36304;BME280;22335;49.800;8.596;2024-02-23T23:09:03;98615.03;;;11.06;53.58
36304;BME280;22335;49.800;8.596;2024-02-23T23:15:51;98626.78;;;11.06;53.63
36304;BME280;22335;49.800;8.596;2024-02-23T23:22:35;98671.34;;;10.77;53.82
36304;BME280;22335;49.800;8.596;2024-02-23T23:29:18;98661.72;;;10.42;54.29
36304;BME280;22335;49.800;8.596;2024-02-23T23:36:04;98621.59;;;10.16;54.42
36304;BME280;22335;49.800;8.596;2024-02-23T23:42:48;98663.59;;;10.50;54.21
36304;BME280;22335;49.800;8.596;2024-02-23T23:49:31;98673.56;;;10.46;54.23
36304;BME280;22335;49.800;8.596;2024-02-23T23:56:16;98665.72;;;10.44;54.49
